Time;durP1;ratioP1;P1;durP2;ratioP2;P2;SDS_P1;SDS_P2;PMS_P1;PMS_P2;Temp;Humidity;BMP_temperature;BMP_pressure;BME280_temperature;BME280_humidity;BME280_pressure;Samples;Min_cycle;Max_cycle;Signal;HPM_P1;HPM_P2
2023/07/24 00:01:17;;;;;;;;;;;;;;;;;;4977232;28;20328;-67
2023/07/24 00:03:42;;;;;;;;;;;;;;;;;;4976928;28;20350;-67
2023/07/24 00:06:08;;;;;;;;;;;;;;;;;;4976884;28;20060;-67
2023/07/24 00:08:34;;;;;;;;;;;;;;;;;;4977050;28;20026;-69
2023/07/24 00:11:02;;;;;;;;;;;;;;;;;;4977092;28;20330;-67
2023/07/24 00:13:28;;;;;;;;;;;;;;;;;;4977008;28;20309;-67
2023/07/24 00:15:54;;;;;;;;;;;;;;;;;;4977261;28;19968;-68
2023/07/24 00:18:20;;;;;;;;;;;;;;;;;;4976691;28;19956;-67
2023/07/24 00:20:46;;;;;;;;;;;;;;;;;;4976598;28;19988;-68
2023/07/24 00:23:12;;;;;;;;;;;;;;;;;;4976549;28;19963;-68
2023/07/24 00:25:38;;;;;;;;;;;;;;;;;;4976544;28;20339;-68
2023/07/24 00:28:04;;;;;;;;;;;;;;;;;;4976947;28;20458;-68
2023/07/24 00:30:30;;;;;;;;;;;;;;;;;;4976740;28;19958;-68
2023/07/24 00:32:56;;;;;;;;;;;;;;;;;;4976646;28;20438;-68
2023/07/24 00:35:22;;;;;;;;;;;;;;;;;;4976315;28;19961;-68
2023/07/24 00:37:47;;;;;;;;;;;;;;;;;;4976538;28;19956;-69
2023/07/24 00:40:13;;;;;;;;;;;;;;;;;;4976196;28;19986;-68
2023/07/24 00:42:39;;;;;;;;;;;;;;;;;;4976339;28;19984;-68
2023/07/24 00:45:06;;;;;;;;;;;;;;;;;;4976497;28;19995;-69
2023/07/24 00:47:32;;;;;;;;;;;;;;;;;;4976318;28;19969;-68
2023/07/24 00:49:58;;;;;;;;;;;;;;;;;;4976529;28;20424;-68
2023/07/24 00:52:24;;;;;;;;;;;;;;;;;;4976371;28;19972;-67
2023/07/24 00:54:49;;;;;;;;;;;;;;;;;;4975959;28;20491;-67
2023/07/24 00:57:15;;;;;;;;;;;;;;;;;;4975957;28;19961;-68
2023/07/24 00:59:42;;;;;;;;;;;;;;;;;;4976397;28;20301;-68
2023/07/24 01:02:07;;;;;;;;;;;;;;;;;;4976080;28;20031;-68
2023/07/24 01:04:33;;;;;;;;;;;;;;;;;;4976094;28;20387;-68
2023/07/24 01:06:59;;;;;;;;;;;;;;;;;;4976004;28;20009;-67
2023/07/24 01:09:25;;;;;;;;;;;;;;;;;;4975659;28;20022;-69
2023/07/24 01:11:51;;;;;;;;;;;;;;;;;;4975670;28;20402;-68
2023/07/24 01:14:17;;;;;;;;;;;;;;;;;;4975881;28;19957;-69
2023/07/24 01:16:43;;;;;;;;;;;;;;;;;;4975566;28;20047;-67
2023/07/24 01:19:09;;;;;;;;;;;;;;;;;;4975524;28;20342;-68
2023/07/24 01:21:35;;;;;;;;;;;;;;;;;;4975459;28;19958;-68
2023/07/24 01:24:01;;;;;;;;;;;;;;;;;;4975422;28;20054;-68
2023/07/24 01:26:27;;;;;;;;;;;;;;;;;;4975687;28;19957;-68
2023/07/24 01:28:53;;;;;;;;;;;;;;;;;;4975311;28;19977;-68
2023/07/24 01:31:18;;;;;;;;;;;;;;;;;;4975601;28;20335;-68
2023/07/24 01:33:44;;;;;;;;;;;;;;;;;;4975336;28;20323;-68
2023/07/24 01:36:10;;;;;;;;;;;;;;;;;;4975554;28;20407;-69
2023/07/24 01:38:36;;;;;;;;;;;;;;;;;;4975555;28;19956;-68
2023/07/24 01:41:02;;;;;;;;;;;;;;;;;;4975303;28;19961;-69
2023/07/24 01:43:28;;;;;;;;;;;;;;;;;;4975422;28;20068;-68
2023/07/24 01:45:54;;;;;;;;;;;;;;;;;;4974907;28;20087;-68
2023/07/24 01:48:20;;;;;;;;;;;;;;;;;;4974659;28;19992;-68
2023/07/24 01:50:46;;;;;;;;;;;;;;;;;;4975629;28;19956;-68
2023/07/24 01:53:11;;;;;;;;;;;;;;;;;;4975349;28;19957;-68
2023/07/24 01:55:37;;;;;;;;;;;;;;;;;;4975079;28;19956;-68
2023/07/24 01:58:03;;;;;;;;;;;;;;;;;;4975237;28;19957;-68
2023/07/24 02:00:29;;;;;;;;;;;;;;;;;;4974961;28;19961;-69
2023/07/24 02:02:55;;;;;;;;;;;;;;;;;;4974922;28;20438;-68
2023/07/24 02:05:21;;;;;;;;;;;;;;;;;;4974903;28;19965;-67
2023/07/24 02:07:47;;;;;;;;;;;;;;;;;;4975419;28;20403;-68
2023/07/24 02:10:13;;;;;;;;;;;;;;;;;;4975026;28;20071;-68
2023/07/24 02:12:39;;;;;;;;;;;;;;;;;;4974796;28;20427;-69
2023/07/24 02:15:05;;;;;;;;;;;;;;;;;;4974805;28;20048;-68
2023/07/24 02:17:31;;;;;;;;;;;;;;;;;;4974756;28;19999;-68
2023/07/24 02:19:57;;;;;;;;;;;;;;;;;;4974998;28;19961;-68
2023/07/24 02:22:23;;;;;;;;;;;;;;;;;;4974700;28;20407;-68
2023/07/24 02:24:48;;;;;;;;;;;;;;;;;;4974725;28;19988;-67
2023/07/24 02:27:14;;;;;;;;;;;;;;;;;;4974957;28;20048;-67
2023/07/24 02:29:40;;;;;;;;;;;;;;;;;;4974897;28;20443;-68
2023/07/24 02:32:06;;;;;;;;;;;;;;;;;;4974640;28;20475;-67
2023/07/24 02:34:32;;;;;;;;;;;;;;;;;;4974622;28;19958;-68
2023/07/24 02:36:58;;;;;;;;;;;;;;;;;;4974866;28;19957;-67
2023/07/24 02:39:24;;;;;;;;;;;;;;;;;;4974878;28;19986;-68
2023/07/24 02:41:50;;;;;;;;;;;;;;;;;;4974505;28;19988;-68
2023/07/24 02:44:16;;;;;;;;;;;;;;;;;;4974948;28;20467;-68
2023/07/24 02:46:41;;;;;;;;;;;;;;;;;;4975270;28;20346;-68
2023/07/24 02:49:07;;;;;;;;;;;;;;;;;;4974734;28;20436;-68
2023/07/24 02:51:33;;;;;;;;;;;;;;;;;;4974481;28;19958;-68
2023/07/24 02:53:59;;;;;;;;;;;;;;;;;;4974743;28;19977;-68
2023/07/24 02:56:25;;;;;;;;;;;;;;;;;;4974404;28;19957;-68
2023/07/24 02:58:51;;;;;;;;;;;;;;;;;;4974728;28;19956;-69
2023/07/24 03:01:17;;;;;;;;;;;;;;;;;;4977105;28;20045;-68
2023/07/24 03:03:43;;;;;;;;;;;;;;;;;;4978047;28;20008;-69
2023/07/24 03:06:08;;;;;;;;;;;;;;;;;;4977987;28;19968;-68
2023/07/24 03:08:34;;;;;;;;;;;;;;;;;;4978135;28;20077;-67
2023/07/24 03:11:02;;;;;;;;;;;;;;;;;;4978174;28;20379;-67
2023/07/24 03:13:28;;;;;;;;;;;;;;;;;;4978387;28;19961;-68
2023/07/24 03:15:54;;;;;;;;;;;;;;;;;;4977787;28;19965;-68
2023/07/24 03:18:19;;;;;;;;;;;;;;;;;;4977756;28;19978;-67
2023/07/24 03:20:45;;;;;;;;;;;;;;;;;;4978288;28;20004;-68
2023/07/24 03:23:11;;;;;;;;;;;;;;;;;;4977708;28;19958;-68
2023/07/24 03:25:37;;;;;;;;;;;;;;;;;;4977688;28;19957;-69
2023/07/24 03:28:03;;;;;;;;;;;;;;;;;;4977825;28;19956;-68
2023/07/24 03:30:29;;;;;;;;;;;;;;;;;;4977806;28;19962;-68
2023/07/24 03:32:55;;;;;;;;;;;;;;;;;;4977776;28;20315;-68
2023/07/24 03:35:21;;;;;;;;;;;;;;;;;;4977467;28;19958;-68
2023/07/24 03:37:47;;;;;;;;;;;;;;;;;;4977420;28;20376;-68
2023/07/24 03:40:13;;;;;;;;;;;;;;;;;;4977397;28;20047;-68
2023/07/24 03:42:39;;;;;;;;;;;;;;;;;;4977270;28;20065;-68
2023/07/24 03:45:05;;;;;;;;;;;;;;;;;;4978007;28;20431;-68
2023/07/24 03:47:31;;;;;;;;;;;;;;;;;;4977509;28;19957;-68
2023/07/24 03:49:57;;;;;;;;;;;;;;;;;;4977138;28;19980;-68
2023/07/24 03:52:23;;;;;;;;;;;;;;;;;;4977141;28;19958;-68
2023/07/24 03:54:49;;;;;;;;;;;;;;;;;;4977120;28;19961;-69
2023/07/24 03:57:14;;;;;;;;;;;;;;;;;;4977359;28;20336;-69
2023/07/24 03:59:40;;;;;;;;;;;;;;;;;;4976987;28;20324;-68
2023/07/24 04:02:06;;;;;;;;;;;;;;;;;;4976971;28;19964;-68
2023/07/24 04:04:32;;;;;;;;;;;;;;;;;;4977190;28;19960;-67
2023/07/24 04:06:58;;;;;;;;;;;;;;;;;;4976888;28;19987;-68
2023/07/24 04:09:24;;;;;;;;;;;;;;;;;;4976801;28;20046;-68
2023/07/24 04:11:50;;;;;;;;;;;;;;;;;;4976466;28;19957;-68
2023/07/24 04:14:16;;;;;;;;;;;;;;;;;;4977037;28;19958;-68
2023/07/24 04:16:42;;;;;;;;;;;;;;;;;;4976730;28;20423;-68
2023/07/24 04:19:08;;;;;;;;;;;;;;;;;;4976949;28;20012;-68
2023/07/24 04:21:34;;;;;;;;;;;;;;;;;;4976624;28;19957;-68
2023/07/24 04:24:00;;;;;;;;;;;;;;;;;;4976547;28;20375;-67
2023/07/24 04:26:26;;;;;;;;;;;;;;;;;;4976505;28;19964;-68
2023/07/24 04:28:52;;;;;;;;;;;;;;;;;;4976937;28;20027;-68
2023/07/24 04:31:18;;;;;;;;;;;;;;;;;;4976712;28;19957;-68
2023/07/24 04:33:44;;;;;;;;;;;;;;;;;;4976693;28;19957;-68
2023/07/24 04:36:09;;;;;;;;;;;;;;;;;;4976382;28;19993;-68
2023/07/24 04:38:35;;;;;;;;;;;;;;;;;;4976840;28;20408;-68
2023/07/24 04:41:02;;;;;;;;;;;;;;;;;;4976570;28;19984;-69
2023/07/24 04:43:27;;;;;;;;;;;;;;;;;;4976409;28;19974;-69
2023/07/24 04:45:53;;;;;;;;;;;;;;;;;;4976535;28;20000;-68
2023/07/24 04:48:19;;;;;;;;;;;;;;;;;;4976047;28;19965;-68
2023/07/24 04:50:45;;;;;;;;;;;;;;;;;;4976128;28;19958;-68
2023/07/24 04:53:11;;;;;;;;;;;;;;;;;;4976329;28;19958;-68
2023/07/24 04:55:37;;;;;;;;;;;;;;;;;;4975974;28;20404;-68
2023/07/24 04:58:03;;;;;;;;;;;;;;;;;;4976211;28;19958;-68
2023/07/24 05:00:29;;;;;;;;;;;;;;;;;;4975862;28;19984;-68
2023/07/24 05:02:55;;;;;;;;;;;;;;;;;;4975846;28;19964;-68
2023/07/24 05:05:20;;;;;;;;;;;;;;;;;;4976066;28;19987;-68
2023/07/24 05:07:46;;;;;;;;;;;;;;;;;;4975762;28;19957;-68
2023/07/24 05:10:13;;;;;;;;;;;;;;;;;;4975913;28;19977;-68
2023/07/24 05:12:39;;;;;;;;;;;;;;;;;;4975661;28;20480;-68
2023/07/24 05:15:05;;;;;;;;;;;;;;;;;;4975657;28;20054;-68
2023/07/24 05:17:30;;;;;;;;;;;;;;;;;;4975898;28;19965;-68
2023/07/24 05:19:56;;;;;;;;;;;;;;;;;;4975559;28;20096;-68
2023/07/24 05:22:22;;;;;;;;;;;;;;;;;;4975405;28;19965;-68
2023/07/24 05:24:48;;;;;;;;;;;;;;;;;;4975167;28;19980;-68
2023/07/24 05:27:15;;;;;;;;;;;;;;;;;;4975448;28;20008;-68
2023/07/24 05:29:41;;;;;;;;;;;;;;;;;;4975608;28;19983;-68
2023/07/24 05:32:07;;;;;;;;;;;;;;;;;;4975351;28;19985;-68
2023/07/24 05:34:33;;;;;;;;;;;;;;;;;;4975331;28;19964;-68
2023/07/24 05:36:59;;;;;;;;;;;;;;;;;;4975280;28;19968;-68
2023/07/24 05:39:25;;;;;;;;;;;;;;;;;;4975544;28;19961;-68
2023/07/24 05:41:51;;;;;;;;;;;;;;;;;;4975409;28;20442;-68
2023/07/24 05:44:17;;;;;;;;;;;;;;;;;;4975089;28;19957;-68
2023/07/24 05:46:43;;;;;;;;;;;;;;;;;;4975979;28;19961;-67
2023/07/24 05:49:09;;;;;;;;;;;;;;;;;;4975020;28;19987;-68
2023/07/24 05:51:34;;;;;;;;;;;;;;;;;;4975019;28;20071;-68
2023/07/24 05:54:00;;;;;;;;;;;;;;;;;;4975043;28;19961;-68
2023/07/24 05:56:26;;;;;;;;;;;;;;;;;;4975275;28;19972;-68
2023/07/24 05:58:52;;;;;;;;;;;;;;;;;;4974951;28;19956;-68
2023/07/24 06:01:18;;;;;;;;;;;;;;;;;;4974940;28;20047;-68
2023/07/24 06:03:44;;;;;;;;;;;;;;;;;;4974902;28;19963;-68
2023/07/24 06:06:10;;;;;;;;;;;;;;;;;;4975123;28;19961;-68
2023/07/24 06:08:36;;;;;;;;;;;;;;;;;;4975105;28;19977;-68
2023/07/24 06:11:01;;;;;;;;;;;;;;;;;;4974834;28;19996;-68
2023/07/24 06:13:27;;;;;;;;;;;;;;;;;;4974875;28;19957;-68
2023/07/24 06:15:53;;;;;;;;;;;;;;;;;;4974837;28;19965;-68
2023/07/24 06:18:19;;;;;;;;;;;;;;;;;;4974784;28;19962;-68
2023/07/24 06:20:45;;;;;;;;;;;;;;;;;;4975018;28;19959;-69
2023/07/24 06:23:11;;;;;;;;;;;;;;;;;;4974748;28;20305;-68
2023/07/24 06:25:37;;;;;;;;;;;;;;;;;;4974716;28;20012;-69
2023/07/24 06:28:03;;;;;;;;;;;;;;;;;;4974947;28;19957;-68
2023/07/24 06:30:29;;;;;;;;;;;;;;;;;;4973333;28;20437;-68
2023/07/24 06:32:55;;;;;;;;;;;;;;;;;;4974675;28;19997;-68
2023/07/24 06:35:20;;;;;;;;;;;;;;;;;;4977615;28;19956;-68
2023/07/24 06:37:46;;;;;;;;;;;;;;;;;;4978597;28;19957;-68
2023/07/24 06:40:12;;;;;;;;;;;;;;;;;;4979015;28;20379;-68
2023/07/24 06:42:38;;;;;;;;;;;;;;;;;;4978502;28;20020;-68
2023/07/24 06:45:04;;;;;;;;;;;;;;;;;;4978749;28;19993;-68
2023/07/24 06:47:30;;;;;;;;;;;;;;;;;;4978380;28;20470;-68
2023/07/24 06:49:57;;;;;;;;;;;;;;;;;;4978520;28;19984;-68
2023/07/24 06:52:23;;;;;;;;;;;;;;;;;;4978266;28;20051;-68
2023/07/24 06:54:51;;;;;;;;;;;;;;;;;;4977482;28;21550;-68
2023/07/24 06:57:16;;;;;;;;;;;;;;;;;;4978194;28;20000;-68
2023/07/24 06:59:42;;;;;;;;;;;;;;;;;;4978414;28;19964;-67
2023/07/24 07:02:08;;;;;;;;;;;;;;;;;;4978378;28;19985;-69
2023/07/24 07:04:34;;;;;;;;;;;;;;;;;;4978046;28;19957;-68
2023/07/24 07:07:00;;;;;;;;;;;;;;;;;;4977941;28;19961;-69
2023/07/24 07:09:26;;;;;;;;;;;;;;;;;;4977907;28;20023;-69
2023/07/24 07:11:52;;;;;;;;;;;;;;;;;;4978447;28;19983;-68
2023/07/24 07:14:18;;;;;;;;;;;;;;;;;;4978172;28;19956;-69
2023/07/24 07:16:44;;;;;;;;;;;;;;;;;;4978596;28;20423;-68
2023/07/24 07:19:10;;;;;;;;;;;;;;;;;;4976014;28;20016;-70
2023/07/24 07:21:36;;;;;;;;;;;;;;;;;;4975594;28;20028;-70
2023/07/24 07:24:02;;;;;;;;;;;;;;;;;;4977657;28;20443;-70
2023/07/24 07:26:29;;;;;;;;;;;;;;;;;;4977080;28;20066;-71
2023/07/24 07:28:55;;;;;;;;;;;;;;;;;;4977125;28;20051;-71
2023/07/24 07:31:21;;;;;;;;;;;;;;;;;;4976662;28;20316;-71
2023/07/24 07:33:48;;;;;;;;;;;;;;;;;;4977018;28;20335;-70
2023/07/24 07:36:14;;;;;;;;;;;;;;;;;;4977287;28;19958;-70
2023/07/24 07:38:39;;;;;;;;;;;;;;;;;;4977374;28;19976;-69
2023/07/24 07:41:05;;;;;;;;;;;;;;;;;;4977457;28;19969;-70
2023/07/24 07:43:31;;;;;;;;;;;;;;;;;;4976628;28;20470;-71
2023/07/24 07:45:59;;;;;;;;;;;;;;;;;;4975974;28;19995;-72
2023/07/24 07:48:24;;;;;;;;;;;;;;;;;;4974998;28;20024;-71
2023/07/24 07:50:51;;;;;;;;;;;;;;;;;;4976794;28;20043;-71
2023/07/24 07:53:16;;;;;;;;;;;;;;;;;;4977419;28;20071;-71
2023/07/24 07:55:42;;;;;;;;;;;;;;;;;;4976175;28;20000;-71
2023/07/24 07:58:08;;;;;;;;;;;;;;;;;;4975624;28;20313;-71
2023/07/24 08:00:34;;;;;;;;;;;;;;;;;;4976136;28;19968;-72
2023/07/24 08:03:00;;;;;;;;;;;;;;;;;;4975310;28;20342;-71
2023/07/24 08:05:26;;;;;;;;;;;;;;;;;;4976496;28;19960;-71
2023/07/24 08:07:52;;;;;;;;;;;;;;;;;;4975233;28;20417;-71
2023/07/24 08:10:18;;;;;;;;;;;;;;;;;;4975948;28;19988;-71
2023/07/24 08:12:43;;;;;;;;;;;;;;;;;;4976229;28;19960;-73
2023/07/24 08:15:09;;;;;;;;;;;;;;;;;;4975422;28;19966;-71
2023/07/24 08:17:35;;;;;;;;;;;;;;;;;;4965878;28;20020;-71
2023/07/24 08:20:01;;;;;;;;;;;;;;;;;;4975934;28;20011;-73
2023/07/24 08:22:27;;;;;;;;;;;;;;;;;;4976039;28;20358;-72
2023/07/24 08:24:54;;;;;;;;;;;;;;;;;;4975999;28;19961;-69
2023/07/24 08:27:19;;;;;;;;;;;;;;;;;;4975972;28;19969;-68
2023/07/24 08:29:45;;;;;;;;;;;;;;;;;;4975139;28;19984;-69
2023/07/24 08:32:12;;;;;;;;;;;;;;;;;;4975088;28;19965;-71
2023/07/24 08:34:38;;;;;;;;;;;;;;;;;;4976131;28;20044;-71
2023/07/24 08:37:04;;;;;;;;;;;;;;;;;;4975765;28;20063;-71
2023/07/24 08:39:30;;;;;;;;;;;;;;;;;;4975893;28;19965;-71
2023/07/24 08:41:56;;;;;;;;;;;;;;;;;;4976104;28;19980;-71
2023/07/24 08:44:24;;;;;;;;;;;;;;;;;;4976341;28;19965;-71
2023/07/24 08:46:50;;;;;;;;;;;;;;;;;;4976619;28;20439;-71
2023/07/24 08:49:15;;;;;;;;;;;;;;;;;;4975430;28;19988;-71
2023/07/24 08:51:42;;;;;;;;;;;;;;;;;;4973983;28;20424;-72
2023/07/24 08:54:07;;;;;;;;;;;;;;;;;;4975619;28;19964;-71
2023/07/24 08:56:33;;;;;;;;;;;;;;;;;;4974749;28;19957;-72
2023/07/24 08:58:59;;;;;;;;;;;;;;;;;;4968922;28;20466;-70
2023/07/24 09:01:25;;;;;;;;;;;;;;;;;;4974323;28;20007;-70
2023/07/24 09:03:51;;;;;;;;;;;;;;;;;;4973744;28;19979;-70
2023/07/24 09:06:17;;;;;;;;;;;;;;;;;;4975681;28;19957;-70
2023/07/24 09:08:43;;;;;;;;;;;;;;;;;;4975304;28;20080;-70
2023/07/24 09:11:09;;;;;;;;;;;;;;;;;;4974712;28;19960;-70
2023/07/24 09:13:35;;;;;;;;;;;;;;;;;;4972393;28;19960;-71
2023/07/24 09:16:01;;;;;;;;;;;;;;;;;;4966563;28;19976;-71
2023/07/24 09:18:27;;;;;;;;;;;;;;;;;;4975543;28;20470;-72
2023/07/24 09:20:52;;;;;;;;;;;;;;;;;;4975589;28;20428;-71
2023/07/24 09:23:18;;;;;;;;;;;;;;;;;;4974050;28;19960;-71
2023/07/24 09:25:45;;;;;;;;;;;;;;;;;;4975379;28;20010;-72
2023/07/24 09:28:11;;;;;;;;;;;;;;;;;;4974588;28;19964;-72
2023/07/24 09:30:37;;;;;;;;;;;;;;;;;;4974936;28;20016;-71
2023/07/24 09:33:02;;;;;;;;;;;;;;;;;;4974295;28;19961;-69
2023/07/24 09:35:28;;;;;;;;;;;;;;;;;;4975015;28;19965;-70
2023/07/24 09:37:54;;;;;;;;;;;;;;;;;;4974912;28;19972;-70
2023/07/24 09:40:20;;;;;;;;;;;;;;;;;;4975548;28;19999;-69
2023/07/24 09:42:46;;;;;;;;;;;;;;;;;;4974487;28;19977;-71
2023/07/24 09:45:12;;;;;;;;;;;;;;;;;;4974379;28;19993;-69
2023/07/24 09:47:38;;;;;;;;;;;;;;;;;;4975053;28;19965;-71
2023/07/24 09:50:04;;;;;;;;;;;;;;;;;;4974735;28;19992;-70
2023/07/24 09:52:30;;;;;;;;;;;;;;;;;;4973988;28;19965;-70
2023/07/24 09:54:56;;;;;;;;;;;;;;;;;;4975036;28;19957;-70
2023/07/24 09:57:22;;;;;;;;;;;;;;;;;;4975264;28;20435;-71
2023/07/24 09:59:48;;;;;;;;;;;;;;;;;;4974681;28;19957;-70
2023/07/24 10:02:14;;;;;;;;;;;;;;;;;;4974808;28;19961;-70
2023/07/24 10:04:40;;;;;;;;;;;;;;;;;;4973737;28;20048;-70
2023/07/24 10:07:06;;;;;;;;;;;;;;;;;;4974443;28;20426;-70
2023/07/24 10:09:32;;;;;;;;;;;;;;;;;;4973828;28;20432;-70
2023/07/24 10:11:58;;;;;;;;;;;;;;;;;;4975139;28;19957;-70
2023/07/24 10:14:23;;;;;;;;;;;;;;;;;;4973667;28;20395;-69
2023/07/24 10:16:55;;;;;;;;;;;;;;;;;;4975023;28;19968;-69
2023/07/24 10:19:21;;;;;;;;;;;;;;;;;;4973834;28;20037;-68
2023/07/24 10:21:47;;;;;;;;;;;;;;;;;;4974035;28;20056;-69
2023/07/24 10:24:13;;;;;;;;;;;;;;;;;;4973640;28;20497;-68
2023/07/24 10:26:39;;;;;;;;;;;;;;;;;;4973967;28;19961;-68
2023/07/24 10:29:06;;;;;;;;;;;;;;;;;;4973871;28;20452;-70
2023/07/24 10:31:32;;;;;;;;;;;;;;;;;;4972910;28;20454;-70
2023/07/24 10:33:58;;;;;;;;;;;;;;;;;;4974176;28;20051;-69
2023/07/24 10:36:24;;;;;;;;;;;;;;;;;;4974081;28;19961;-70
2023/07/24 10:38:50;;;;;;;;;;;;;;;;;;4975170;28;20414;-70
2023/07/24 10:41:16;;;;;;;;;;;;;;;;;;4974515;28;19958;-70
2023/07/24 10:43:41;;;;;;;;;;;;;;;;;;4974862;28;19968;-70
2023/07/24 10:46:07;;;;;;;;;;;;;;;;;;4974960;28;20052;-70
2023/07/24 10:48:33;;;;;;;;;;;;;;;;;;4975046;28;19957;-70
2023/07/24 10:50:59;;;;;;;;;;;;;;;;;;4974536;28;19962;-70
2023/07/24 10:53:26;;;;;;;;;;;;;;;;;;4974490;28;20008;-70
2023/07/24 10:55:52;;;;;;;;;;;;;;;;;;4974431;28;20408;-69
2023/07/24 10:58:18;;;;;;;;;;;;;;;;;;4974465;28;19963;-70
2023/07/24 11:00:44;;;;;;;;;;;;;;;;;;4974436;28;19989;-69
2023/07/24 11:03:10;;;;;;;;;;;;;;;;;;4974376;28;19969;-70
2023/07/24 11:05:36;;;;;;;;;;;;;;;;;;4974619;28;19963;-70
2023/07/24 11:08:02;;;;;;;;;;;;;;;;;;4974332;28;19969;-69
2023/07/24 11:10:30;;;;;;;;;;;;;;;;;;4974300;28;20024;-69
2023/07/24 11:12:57;;;;;;;;;;;;;;;;;;4974634;28;20051;-69
2023/07/24 11:15:23;;;;;;;;;;;;;;;;;;4973009;28;20324;-70
2023/07/24 11:17:49;;;;;;;;;;;;;;;;;;4974832;28;19972;-69
2023/07/24 11:20:15;;;;;;;;;;;;;;;;;;4974287;28;19965;-69
2023/07/24 11:22:41;;;;;;;;;;;;;;;;;;4977183;28;19974;-70
2023/07/24 11:25:07;;;;;;;;;;;;;;;;;;4977715;28;19986;-70
2023/07/24 11:27:33;;;;;;;;;;;;;;;;;;4977941;28;19957;-69
2023/07/24 11:29:59;;;;;;;;;;;;;;;;;;4977521;28;19977;-70
2023/07/24 11:32:24;;;;;;;;;;;;;;;;;;4978127;28;20319;-69
2023/07/24 11:34:50;;;;;;;;;;;;;;;;;;4977815;28;19957;-69
